sensor_id;sensor_type;location;lat;lon;timestamp;pressure;altitude;pressure_sealevel;temperature;humidity
53526;BME280;40551;50.478;19.378;2022-08-19T00:01:59;97430.59;;;22.37;65.20
53526;BME280;40551;50.478;19.378;2022-08-19T00:04:30;97431.05;;;22.29;64.99
53526;BME280;40551;50.478;19.378;2022-08-19T00:06:59;97428.35;;;22.20;65.36
53526;BME280;40551;50.478;19.378;2022-08-19T00:09:28;97431.61;;;22.12;65.44
53526;BME280;40551;50.478;19.378;2022-08-19T00:11:59;97431.86;;;22.06;65.86
53526;BME280;40551;50.478;19.378;2022-08-19T00:14:29;97432.23;;;22.02;65.98
53526;BME280;40551;50.478;19.378;2022-08-19T00:16:59;97430.70;;;21.99;66.22
53526;BME280;40551;50.478;19.378;2022-08-19T00:19:27;97435.05;;;21.97;66.65
53526;BME280;40551;50.478;19.378;2022-08-19T00:21:55;97434.81;;;21.95;66.69
53526;BME280;40551;50.478;19.378;2022-08-19T00:24:24;97433.98;;;21.94;66.63
53526;BME280;40551;50.478;19.378;2022-08-19T00:26:53;97436.77;;;21.90;66.81
53526;BME280;40551;50.478;19.378;2022-08-19T00:29:24;97432.25;;;21.81;66.61
53526;BME280;40551;50.478;19.378;2022-08-19T00:31:53;97430.36;;;21.69;66.68
53526;BME280;40551;50.478;19.378;2022-08-19T00:34:23;97432.44;;;21.60;66.93
53526;BME280;40551;50.478;19.378;2022-08-19T00:36:52;97425.77;;;21.54;67.28
53526;BME280;40551;50.478;19.378;2022-08-19T00:39:20;97422.99;;;21.53;67.55
53526;BME280;40551;50.478;19.378;2022-08-19T00:41:50;97421.42;;;21.51;67.67
53526;BME280;40551;50.478;19.378;2022-08-19T00:44:21;97418.24;;;21.51;67.83
53526;BME280;40551;50.478;19.378;2022-08-19T00:46:56;97416.18;;;21.50;67.96
53526;BME280;40551;50.478;19.378;2022-08-19T00:49:29;97410.73;;;21.48;68.31
53526;BME280;40551;50.478;19.378;2022-08-19T00:52:04;97412.84;;;21.48;68.21
53526;BME280;40551;50.478;19.378;2022-08-19T00:54:38;97414.96;;;21.48;68.32
53526;BME280;40551;50.478;19.378;2022-08-19T00:57:10;97413.95;;;21.48;68.19
53526;BME280;40551;50.478;19.378;2022-08-19T00:59:42;97410.73;;;21.47;68.18
53526;BME280;40551;50.478;19.378;2022-08-19T01:02:30;97404.92;;;21.38;67.96
53526;BME280;40551;50.478;19.378;2022-08-19T01:04:59;97402.56;;;21.26;68.00
53526;BME280;40551;50.478;19.378;2022-08-19T01:07:28;97403.43;;;21.12;68.16
53526;BME280;40551;50.478;19.378;2022-08-19T01:10:10;97401.02;;;21.00;68.25
53526;BME280;40551;50.478;19.378;2022-08-19T01:12:39;97402.52;;;20.94;68.70
53526;BME280;40551;50.478;19.378;2022-08-19T01:15:11;97401.91;;;20.94;69.14
53526;BME280;40551;50.478;19.378;2022-08-19T01:17:40;97401.46;;;20.94;69.12
53526;BME280;40551;50.478;19.378;2022-08-19T01:20:12;97397.11;;;20.91;69.27
53526;BME280;40551;50.478;19.378;2022-08-19T01:22:44;97396.95;;;20.90;69.45
53526;BME280;40551;50.478;19.378;2022-08-19T01:25:14;97390.70;;;20.89;69.52
53526;BME280;40551;50.478;19.378;2022-08-19T01:27:45;97387.23;;;20.89;69.66
53526;BME280;40551;50.478;19.378;2022-08-19T01:30:19;97385.69;;;20.90;69.73
53526;BME280;40551;50.478;19.378;2022-08-19T01:32:49;97383.38;;;20.90;69.52
53526;BME280;40551;50.478;19.378;2022-08-19T01:35:18;97378.61;;;20.84;69.44
53526;BME280;40551;50.478;19.378;2022-08-19T01:37:49;97374.80;;;20.73;69.44
53526;BME280;40551;50.478;19.378;2022-08-19T01:40:20;97372.34;;;20.61;69.55
53526;BME280;40551;50.478;19.378;2022-08-19T01:42:50;97378.76;;;20.50;69.93
53526;BME280;40551;50.478;19.378;2022-08-19T01:45:21;97381.91;;;20.44;70.11
53526;BME280;40551;50.478;19.378;2022-08-19T01:47:50;97383.63;;;20.39;70.27
53526;BME280;40551;50.478;19.378;2022-08-19T01:50:30;97384.52;;;20.30;70.43
53526;BME280;40551;50.478;19.378;2022-08-19T01:52:59;97384.80;;;20.19;70.72
53526;BME280;40551;50.478;19.378;2022-08-19T01:55:35;97382.91;;;20.09;70.88
53526;BME280;40551;50.478;19.378;2022-08-19T01:58:11;97385.35;;;20.03;71.08
53526;BME280;40551;50.478;19.378;2022-08-19T02:00:42;97384.80;;;19.99;71.43
53526;BME280;40551;50.478;19.378;2022-08-19T02:03:11;97380.10;;;19.98;71.65
53526;BME280;40551;50.478;19.378;2022-08-19T02:05:40;97375.01;;;19.96;71.77
53526;BME280;40551;50.478;19.378;2022-08-19T02:08:10;97371.16;;;19.92;71.73
53526;BME280;40551;50.478;19.378;2022-08-19T02:10:40;97368.58;;;19.85;72.03
53526;BME280;40551;50.478;19.378;2022-08-19T02:13:09;97360.72;;;19.78;72.09
53526;BME280;40551;50.478;19.378;2022-08-19T02:15:37;97360.64;;;19.72;72.42
53526;BME280;40551;50.478;19.378;2022-08-19T02:18:06;97354.66;;;19.67;72.53
53526;BME280;40551;50.478;19.378;2022-08-19T02:20:40;97355.84;;;19.63;72.68
53526;BME280;40551;50.478;19.378;2022-08-19T02:23:10;97353.64;;;19.62;72.75
53526;BME280;40551;50.478;19.378;2022-08-19T02:25:44;97347.10;;;19.61;72.84
53526;BME280;40551;50.478;19.378;2022-08-19T02:28:12;97352.88;;;19.59;73.04
53526;BME280;40551;50.478;19.378;2022-08-19T02:30:47;97355.99;;;19.59;73.04
53526;BME280;40551;50.478;19.378;2022-08-19T02:33:17;97356.52;;;19.62;73.12
53526;BME280;40551;50.478;19.378;2022-08-19T02:35:46;97358.84;;;19.62;72.96
53526;BME280;40551;50.478;19.378;2022-08-19T02:38:15;97359.85;;;19.60;73.11
53526;BME280;40551;50.478;19.378;2022-08-19T02:40:56;97359.65;;;19.55;73.10
53526;BME280;40551;50.478;19.378;2022-08-19T02:43:25;97360.60;;;19.46;73.30
53526;BME280;40551;50.478;19.378;2022-08-19T02:45:53;97360.88;;;19.42;73.76
53526;BME280;40551;50.478;19.378;2022-08-19T02:48:23;97365.18;;;19.40;73.72
53526;BME280;40551;50.478;19.378;2022-08-19T02:50:52;97364.34;;;19.38;73.77
53526;BME280;40551;50.478;19.378;2022-08-19T02:53:24;97362.34;;;19.39;73.95
53526;BME280;40551;50.478;19.378;2022-08-19T02:55:52;97360.77;;;19.38;73.86
53526;BME280;40551;50.478;19.378;2022-08-19T02:58:22;97361.70;;;19.31;73.94
53526;BME280;40551;50.478;19.378;2022-08-19T03:00:54;97360.35;;;19.29;73.98
53526;BME280;40551;50.478;19.378;2022-08-19T03:03:23;97365.02;;;19.28;74.25
53526;BME280;40551;50.478;19.378;2022-08-19T03:05:51;97363.40;;;19.28;74.33
53526;BME280;40551;50.478;19.378;2022-08-19T03:08:24;97363.84;;;19.26;74.25
53526;BME280;40551;50.478;19.378;2022-08-19T03:10:53;97367.13;;;19.25;74.43
53526;BME280;40551;50.478;19.378;2022-08-19T03:13:22;97370.33;;;19.29;74.52
53526;BME280;40551;50.478;19.378;2022-08-19T03:15:51;97370.29;;;19.31;74.38
53526;BME280;40551;50.478;19.378;2022-08-19T03:18:20;97366.64;;;19.29;74.46
53526;BME280;40551;50.478;19.378;2022-08-19T03:20:52;97369.90;;;19.28;74.52
53526;BME280;40551;50.478;19.378;2022-08-19T03:23:23;97369.45;;;19.31;74.52
53526;BME280;40551;50.478;19.378;2022-08-19T03:25:52;97373.66;;;19.32;74.63
53526;BME280;40551;50.478;19.378;2022-08-19T03:28:41;97373.17;;;19.34;74.67
53526;BME280;40551;50.478;19.378;2022-08-19T03:31:20;97378.52;;;19.35;74.50
53526;BME280;40551;50.478;19.378;2022-08-19T03:34:09;97379.99;;;19.32;74.48
53526;BME280;40551;50.478;19.378;2022-08-19T03:36:39;97383.88;;;19.26;74.43
53526;BME280;40551;50.478;19.378;2022-08-19T03:39:07;97382.58;;;19.24;74.65
53526;BME280;40551;50.478;19.378;2022-08-19T03:41:39;97374.55;;;19.22;74.54
53526;BME280;40551;50.478;19.378;2022-08-19T03:44:14;97377.42;;;19.21;74.77
53526;BME280;40551;50.478;19.378;2022-08-19T03:46:47;97374.95;;;19.23;74.86
53526;BME280;40551;50.478;19.378;2022-08-19T03:49:16;97371.50;;;19.24;74.94
53526;BME280;40551;50.478;19.378;2022-08-19T03:51:46;97373.26;;;19.25;75.09
53526;BME280;40551;50.478;19.378;2022-08-19T03:54:18;97372.08;;;19.33;75.40
53526;BME280;40551;50.478;19.378;2022-08-19T03:56:48;97368.35;;;19.42;75.49
53526;BME280;40551;50.478;19.378;2022-08-19T03:59:20;97374.34;;;19.49;75.06
53526;BME280;40551;50.478;19.378;2022-08-19T04:01:49;97368.48;;;19.54;75.14
53526;BME280;40551;50.478;19.378;2022-08-19T04:04:17;97368.58;;;19.57;74.91
53526;BME280;40551;50.478;19.378;2022-08-19T04:06:47;97366.40;;;19.64;75.09
53526;BME280;40551;50.478;19.378;2022-08-19T04:09:15;97368.08;;;19.73;75.10
53526;BME280;40551;50.478;19.378;2022-08-19T04:11:46;97373.79;;;19.83;75.09
53526;BME280;40551;50.478;19.378;2022-08-19T04:14:15;97376.41;;;19.93;74.85
53526;BME280;40551;50.478;19.378;2022-08-19T04:16:44;97379.31;;;20.03;75.05
53526;BME280;40551;50.478;19.378;2022-08-19T04:19:14;97381.25;;;20.17;74.68
53526;BME280;40551;50.478;19.378;2022-08-19T04:21:46;97388.98;;;20.26;74.21
53526;BME280;40551;50.478;19.378;2022-08-19T04:24:15;97391.91;;;20.33;73.97
53526;BME280;40551;50.478;19.378;2022-08-19T04:26:45;97399.89;;;20.39;73.86
53526;BME280;40551;50.478;19.378;2022-08-19T04:29:15;97400.62;;;20.43;73.60
53526;BME280;40551;50.478;19.378;2022-08-19T04:31:45;97401.58;;;20.44;73.50
53526;BME280;40551;50.478;19.378;2022-08-19T04:34:15;97401.65;;;20.48;73.45
53526;BME280;40551;50.478;19.378;2022-08-19T04:36:44;97402.90;;;20.54;73.45
53526;BME280;40551;50.478;19.378;2022-08-19T04:39:14;97406.12;;;20.73;73.83
53526;BME280;40551;50.478;19.378;2022-08-19T04:41:43;97417.50;;;20.98;74.07
53526;BME280;40551;50.478;19.378;2022-08-19T04:44:31;97413.61;;;21.35;73.87
53526;BME280;40551;50.478;19.378;2022-08-19T04:47:01;97409.38;;;21.73;73.60
53526;BME280;40551;50.478;19.378;2022-08-19T04:49:38;97411.70;;;22.10;72.76
53526;BME280;40551;50.478;19.378;2022-08-19T04:52:08;97418.24;;;22.43;72.31
53526;BME280;40551;50.478;19.378;2022-08-19T04:54:36;97423.96;;;22.84;71.97
53526;BME280;40551;50.478;19.378;2022-08-19T04:57:08;97425.64;;;23.21;70.97
53526;BME280;40551;50.478;19.378;2022-08-19T04:59:38;97424.85;;;23.54;70.08
53526;BME280;40551;50.478;19.378;2022-08-19T05:02:08;97424.77;;;23.86;69.32
53526;BME280;40551;50.478;19.378;2022-08-19T05:04:38;97434.94;;;24.22;68.60
53526;BME280;40551;50.478;19.378;2022-08-19T05:07:07;97436.20;;;24.55;67.82
53526;BME280;40551;50.478;19.378;2022-08-19T05:09:36;97443.92;;;24.88;67.15
53526;BME280;40551;50.478;19.378;2022-08-19T05:12:24;97439.61;;;25.33;66.20
53526;BME280;40551;50.478;19.378;2022-08-19T05:14:57;97435.27;;;25.70;65.12
53526;BME280;40551;50.478;19.378;2022-08-19T05:17:26;97428.79;;;26.02;64.29
53526;BME280;40551;50.478;19.378;2022-08-19T05:19:58;97424.83;;;26.35;63.35
53526;BME280;40551;50.478;19.378;2022-08-19T05:22:46;97426.27;;;26.83;63.17
53526;BME280;40551;50.478;19.378;2022-08-19T05:25:18;97431.69;;;27.40;62.34
53526;BME280;40551;50.478;19.378;2022-08-19T05:27:48;97431.29;;;27.96;60.76
53526;BME280;40551;50.478;19.378;2022-08-19T05:30:17;97428.67;;;28.43;58.72
53526;BME280;40551;50.478;19.378;2022-08-19T05:32:45;97431.56;;;28.80;57.94
53526;BME280;40551;50.478;19.378;2022-08-19T05:35:14;97431.58;;;29.20;57.29
53526;BME280;40551;50.478;19.378;2022-08-19T05:37:42;97425.52;;;29.60;56.20
53526;BME280;40551;50.478;19.378;2022-08-19T05:40:11;97422.83;;;29.93;55.10
53526;BME280;40551;50.478;19.378;2022-08-19T05:42:39;97425.95;;;30.42;54.31
53526;BME280;40551;50.478;19.378;2022-08-19T05:45:10;97428.41;;;30.86;52.81
53526;BME280;40551;50.478;19.378;2022-08-19T05:47:38;97429.63;;;31.28;51.61
53526;BME280;40551;50.478;19.378;2022-08-19T05:50:09;97438.07;;;31.59;50.33
53526;BME280;40551;50.478;19.378;2022-08-19T05:52:38;97437.62;;;31.88;49.71
53526;BME280;40551;50.478;19.378;2022-08-19T05:55:11;97441.83;;;32.05;48.43
53526;BME280;40551;50.478;19.378;2022-08-19T05:57:39;97442.82;;;32.19;47.37
53526;BME280;40551;50.478;19.378;2022-08-19T06:00:10;97443.04;;;32.24;46.68
53526;BME280;40551;50.478;19.378;2022-08-19T06:02:39;97437.48;;;32.21;46.27
53526;BME280;40551;50.478;19.378;2022-08-19T06:05:09;97444.39;;;32.23;46.63
53526;BME280;40551;50.478;19.378;2022-08-19T06:07:39;97443.59;;;32.37;45.77
53526;BME280;40551;50.478;19.378;2022-08-19T06:10:10;97446.48;;;32.38;45.59
53526;BME280;40551;50.478;19.378;2022-08-19T06:12:38;97450.69;;;32.38;45.54
53526;BME280;40551;50.478;19.378;2022-08-19T06:15:10;97446.89;;;32.26;45.83
53526;BME280;40551;50.478;19.378;2022-08-19T06:17:39;97448.50;;;32.42;45.72
53526;BME280;40551;50.478;19.378;2022-08-19T06:20:13;97443.69;;;32.64;45.46
53526;BME280;40551;50.478;19.378;2022-08-19T06:22:43;97446.41;;;32.92;45.44
53526;BME280;40551;50.478;19.378;2022-08-19T06:25:14;97449.61;;;33.31;44.79
53526;BME280;40551;50.478;19.378;2022-08-19T06:27:41;97456.50;;;33.60;43.95
53526;BME280;40551;50.478;19.378;2022-08-19T06:30:30;97457.16;;;33.77;44.12
53526;BME280;40551;50.478;19.378;2022-08-19T06:32:58;97462.52;;;34.05;43.54
53526;BME280;40551;50.478;19.378;2022-08-19T06:35:26;97467.64;;;34.39;43.03
53526;BME280;40551;50.478;19.378;2022-08-19T06:37:56;97467.86;;;34.70;42.21
53526;BME280;40551;50.478;19.378;2022-08-19T06:40:25;97470.04;;;34.87;41.45
53526;BME280;40551;50.478;19.378;2022-08-19T06:42:54;97468.34;;;35.01;41.21
53526;BME280;40551;50.478;19.378;2022-08-19T06:45:24;97465.52;;;35.15;41.02
53526;BME280;40551;50.478;19.378;2022-08-19T06:48:03;97463.23;;;35.34;41.19
53526;BME280;40551;50.478;19.378;2022-08-19T06:50:31;97468.46;;;35.57;40.52
53526;BME280;40551;50.478;19.378;2022-08-19T06:53:04;97463.77;;;35.71;39.16
53526;BME280;40551;50.478;19.378;2022-08-19T06:55:33;97460.14;;;35.77;39.17
53526;BME280;40551;50.478;19.378;2022-08-19T06:58:03;97464.41;;;35.84;39.00
53526;BME280;40551;50.478;19.378;2022-08-19T07:00:32;97465.35;;;36.05;38.95
53526;BME280;40551;50.478;19.378;2022-08-19T07:03:01;97463.63;;;36.23;37.89
53526;BME280;40551;50.478;19.378;2022-08-19T07:05:40;97467.90;;;36.30;38.04
53526;BME280;40551;50.478;19.378;2022-08-19T07:08:13;97469.70;;;36.50;36.88
53526;BME280;40551;50.478;19.378;2022-08-19T07:10:44;97477.14;;;36.53;36.80
53526;BME280;40551;50.478;19.378;2022-08-19T07:13:13;97479.91;;;36.54;36.86
53526;BME280;40551;50.478;19.378;2022-08-19T07:15:41;97485.92;;;36.61;37.04
53526;BME280;40551;50.478;19.378;2022-08-19T07:18:09;97487.02;;;36.61;36.58
53526;BME280;40551;50.478;19.378;2022-08-19T07:20:39;97491.88;;;36.45;36.11
53526;BME280;40551;50.478;19.378;2022-08-19T07:23:09;97493.53;;;36.13;36.00
53526;BME280;40551;50.478;19.378;2022-08-19T07:25:43;97497.23;;;36.01;36.21
53526;BME280;40551;50.478;19.378;2022-08-19T07:28:11;97497.45;;;36.04;36.27
53526;BME280;40551;50.478;19.378;2022-08-19T07:30:50;97496.95;;;36.15;36.44
53526;BME280;40551;50.478;19.378;2022-08-19T07:33:20;97499.18;;;36.27;36.23
53526;BME280;40551;50.478;19.378;2022-08-19T07:35:48;97502.12;;;36.35;35.80
53526;BME280;40551;50.478;19.378;2022-08-19T07:38:17;97508.52;;;36.39;35.63
53526;BME280;40551;50.478;19.378;2022-08-19T07:40:46;97512.77;;;36.50;35.94
53526;BME280;40551;50.478;19.378;2022-08-19T07:43:14;97513.92;;;36.48;35.70
53526;BME280;40551;50.478;19.378;2022-08-19T07:45:45;97511.06;;;36.37;36.26
53526;BME280;40551;50.478;19.378;2022-08-19T07:48:14;97515.48;;;36.24;36.53
53526;BME280;40551;50.478;19.378;2022-08-19T07:50:43;97513.08;;;36.01;36.65
53526;BME280;40551;50.478;19.378;2022-08-19T07:53:11;97516.35;;;35.77;36.99
53526;BME280;40551;50.478;19.378;2022-08-19T07:55:39;97513.38;;;35.43;36.03
53526;BME280;40551;50.478;19.378;2022-08-19T07:58:13;97513.30;;;35.00;36.26
53526;BME280;40551;50.478;19.378;2022-08-19T08:00:42;97523.61;;;34.62;36.53
53526;BME280;40551;50.478;19.378;2022-08-19T08:03:12;97524.74;;;34.30;36.79
53526;BME280;40551;50.478;19.378;2022-08-19T08:05:45;97524.90;;;34.01;37.44
53526;BME280;40551;50.478;19.378;2022-08-19T08:08:32;97527.61;;;33.83;38.41
53526;BME280;40551;50.478;19.378;2022-08-19T08:11:20;97531.04;;;33.63;38.76
53526;BME280;40551;50.478;19.378;2022-08-19T08:13:51;97530.95;;;33.49;38.50
53526;BME280;40551;50.478;19.378;2022-08-19T08:16:34;97534.06;;;33.34;38.85
53526;BME280;40551;50.478;19.378;2022-08-19T08:19:15;97532.41;;;33.29;39.46
53526;BME280;40551;50.478;19.378;2022-08-19T08:21:53;97532.40;;;33.25;40.70
53526;BME280;40551;50.478;19.378;2022-08-19T08:24:22;97537.14;;;33.30;41.39
53526;BME280;40551;50.478;19.378;2022-08-19T08:26:57;97539.86;;;33.37;40.71
53526;BME280;40551;50.478;19.378;2022-08-19T08:29:27;97539.84;;;33.38;40.23
53526;BME280;40551;50.478;19.378;2022-08-19T08:32:03;97540.48;;;33.31;40.51
53526;BME280;40551;50.478;19.378;2022-08-19T08:34:41;97534.14;;;33.16;39.58
53526;BME280;40551;50.478;19.378;2022-08-19T08:37:10;97535.88;;;33.03;39.46
53526;BME280;40551;50.478;19.378;2022-08-19T08:39:43;97535.86;;;32.93;39.76
53526;BME280;40551;50.478;19.378;2022-08-19T08:42:18;97538.00;;;32.86;40.05
53526;BME280;40551;50.478;19.378;2022-08-19T08:44:53;97532.96;;;32.87;39.83
53526;BME280;40551;50.478;19.378;2022-08-19T08:47:26;97535.21;;;32.93;39.87
53526;BME280;40551;50.478;19.378;2022-08-19T08:50:00;97534.55;;;32.90;39.83
53526;BME280;40551;50.478;19.378;2022-08-19T08:52:31;97534.71;;;32.90;39.83
53526;BME280;40551;50.478;19.378;2022-08-19T08:55:08;97529.56;;;32.92;39.45
53526;BME280;40551;50.478;19.378;2022-08-19T08:57:44;97530.39;;;32.86;39.41
53526;BME280;40551;50.478;19.378;2022-08-19T09:00:20;97529.55;;;32.83;39.97
53526;BME280;40551;50.478;19.378;2022-08-19T09:02:53;97533.70;;;32.80;40.05
53526;BME280;40551;50.478;19.378;2022-08-19T09:05:23;97528.84;;;32.70;38.92
53526;BME280;40551;50.478;19.378;2022-08-19T09:08:10;97527.33;;;32.58;39.57
53526;BME280;40551;50.478;19.378;2022-08-19T09:10:51;97521.04;;;32.60;39.89
53526;BME280;40551;50.478;19.378;2022-08-19T09:13:28;97516.39;;;32.70;39.89
53526;BME280;40551;50.478;19.378;2022-08-19T09:16:07;97511.60;;;32.75;39.00
53526;BME280;40551;50.478;19.378;2022-08-19T09:18:42;97508.96;;;32.70;38.30
53526;BME280;40551;50.478;19.378;2022-08-19T09:21:11;97505.30;;;32.70;38.36
53526;BME280;40551;50.478;19.378;2022-08-19T09:23:40;97509.39;;;32.77;38.35
53526;BME280;40551;50.478;19.378;2022-08-19T09:26:12;97503.20;;;32.84;38.19
53526;BME280;40551;50.478;19.378;2022-08-19T09:28:45;97504.12;;;32.92;38.31
53526;BME280;40551;50.478;19.378;2022-08-19T09:31:18;97508.41;;;32.99;37.79
53526;BME280;40551;50.478;19.378;2022-08-19T09:33:45;97502.64;;;33.05;37.38
53526;BME280;40551;50.478;19.378;2022-08-19T09:36:16;97507.04;;;33.06;36.91
53526;BME280;40551;50.478;19.378;2022-08-19T09:39:02;97500.40;;;33.07;36.42
53526;BME280;40551;50.478;19.378;2022-08-19T09:41:30;97500.05;;;33.09;35.92
53526;BME280;40551;50.478;19.378;2022-08-19T09:44:01;97494.98;;;33.02;35.22
53526;BME280;40551;50.478;19.378;2022-08-19T09:46:30;97494.41;;;32.88;35.61
53526;BME280;40551;50.478;19.378;2022-08-19T09:48:59;97491.38;;;32.82;35.73
53526;BME280;40551;50.478;19.378;2022-08-19T09:51:34;97499.27;;;32.76;35.93
53526;BME280;40551;50.478;19.378;2022-08-19T09:54:05;97498.98;;;32.68;35.70
53526;BME280;40551;50.478;19.378;2022-08-19T09:56:33;97505.77;;;32.62;36.17
53526;BME280;40551;50.478;19.378;2022-08-19T09:59:04;97508.39;;;32.60;37.24
53526;BME280;40551;50.478;19.378;2022-08-19T10:01:32;97504.89;;;32.55;36.41
53526;BME280;40551;50.478;19.378;2022-08-19T10:04:01;97505.10;;;32.55;36.75
53526;BME280;40551;50.478;19.378;2022-08-19T10:06:38;97502.73;;;32.69;37.01
53526;BME280;40551;50.478;19.378;2022-08-19T10:09:15;97508.89;;;32.86;36.88
53526;BME280;40551;50.478;19.378;2022-08-19T10:11:53;97507.27;;;32.90;36.46
53526;BME280;40551;50.478;19.378;2022-08-19T10:14:22;97509.80;;;32.90;36.62
53526;BME280;40551;50.478;19.378;2022-08-19T10:16:50;97508.56;;;32.86;36.20
53526;BME280;40551;50.478;19.378;2022-08-19T10:19:20;97507.75;;;32.83;36.76
53526;BME280;40551;50.478;19.378;2022-08-19T10:21:54;97504.95;;;32.81;37.03
53526;BME280;40551;50.478;19.378;2022-08-19T10:24:27;97502.77;;;32.88;36.91
53526;BME280;40551;50.478;19.378;2022-08-19T10:26:57;97504.50;;;32.93;36.46
53526;BME280;40551;50.478;19.378;2022-08-19T10:29:27;97505.89;;;32.97;36.50
53526;BME280;40551;50.478;19.378;2022-08-19T10:32:01;97505.29;;;33.04;36.90
53526;BME280;40551;50.478;19.378;2022-08-19T10:34:31;97506.09;;;33.14;36.56
53526;BME280;40551;50.478;19.378;2022-08-19T10:36:59;97501.21;;;33.15;35.98
53526;BME280;40551;50.478;19.378;2022-08-19T10:39:29;97499.77;;;33.18;36.06
53526;BME280;40551;50.478;19.378;2022-08-19T10:41:58;97495.02;;;33.23;35.75
53526;BME280;40551;50.478;19.378;2022-08-19T10:44:27;97497.63;;;33.26;36.17
53526;BME280;40551;50.478;19.378;2022-08-19T10:46:59;97501.71;;;33.33;36.32
53526;BME280;40551;50.478;19.378;2022-08-19T10:49:28;97507.27;;;33.44;36.39
53526;BME280;40551;50.478;19.378;2022-08-19T10:51:56;97504.80;;;33.48;35.95
53526;BME280;40551;50.478;19.378;2022-08-19T10:54:48;97506.66;;;33.55;35.35
53526;BME280;40551;50.478;19.378;2022-08-19T10:57:36;97500.92;;;33.59;36.24
53526;BME280;40551;50.478;19.378;2022-08-19T11:00:24;97499.83;;;33.68;35.64
53526;BME280;40551;50.478;19.378;2022-08-19T11:02:53;97503.06;;;33.75;35.77
53526;BME280;40551;50.478;19.378;2022-08-19T11:05:21;97501.89;;;33.77;36.13
53526;BME280;40551;50.478;19.378;2022-08-19T11:07:51;97495.41;;;33.77;35.17
53526;BME280;40551;50.478;19.378;2022-08-19T11:10:20;97486.80;;;33.80;35.17
53526;BME280;40551;50.478;19.378;2022-08-19T11:12:50;97489.14;;;33.78;34.22
53526;BME280;40551;50.478;19.378;2022-08-19T11:15:21;97484.45;;;33.68;34.17
53526;BME280;40551;50.478;19.378;2022-08-19T11:17:51;97480.73;;;33.60;34.00
53526;BME280;40551;50.478;19.378;2022-08-19T11:20:21;97474.84;;;33.54;34.70
53526;BME280;40551;50.478;19.378;2022-08-19T11:22:52;97465.77;;;33.57;35.13
53526;BME280;40551;50.478;19.378;2022-08-19T11:25:20;97460.27;;;33.62;34.60
53526;BME280;40551;50.478;19.378;2022-08-19T11:27:49;97462.65;;;33.64;35.07
53526;BME280;40551;50.478;19.378;2022-08-19T11:30:18;97465.19;;;33.68;34.87
53526;BME280;40551;50.478;19.378;2022-08-19T11:32:46;97465.79;;;33.70;34.49
53526;BME280;40551;50.478;19.378;2022-08-19T11:35:20;97457.40;;;33.75;34.99
53526;BME280;40551;50.478;19.378;2022-08-19T11:37:48;97456.88;;;33.81;34.84
53526;BME280;40551;50.478;19.378;2022-08-19T11:40:17;97448.14;;;33.71;34.55
53526;BME280;40551;50.478;19.378;2022-08-19T11:42:45;97450.60;;;33.69;35.14
53526;BME280;40551;50.478;19.378;2022-08-19T11:45:23;97443.90;;;33.73;34.60
53526;BME280;40551;50.478;19.378;2022-08-19T11:47:51;97440.73;;;33.78;34.67
53526;BME280;40551;50.478;19.378;2022-08-19T11:50:20;97444.35;;;33.87;34.56
53526;BME280;40551;50.478;19.378;2022-08-19T11:52:54;97446.95;;;33.89;34.22
53526;BME280;40551;50.478;19.378;2022-08-19T11:55:22;97454.23;;;33.93;34.64
53526;BME280;40551;50.478;19.378;2022-08-19T11:57:51;97455.30;;;33.99;34.47
53526;BME280;40551;50.478;19.378;2022-08-19T12:00:19;97458.79;;;33.98;33.65
53526;BME280;40551;50.478;19.378;2022-08-19T12:02:48;97455.11;;;33.89;33.42
53526;BME280;40551;50.478;19.378;2022-08-19T12:05:16;97458.96;;;33.92;34.11
53526;BME280;40551;50.478;19.378;2022-08-19T12:07:45;97457.57;;;33.97;34.30
53526;BME280;40551;50.478;19.378;2022-08-19T12:10:13;97465.63;;;34.03;34.17
53526;BME280;40551;50.478;19.378;2022-08-19T12:12:46;97464.54;;;34.08;34.28
53526;BME280;40551;50.478;19.378;2022-08-19T12:15:26;97461.05;;;34.12;33.91
53526;BME280;40551;50.478;19.378;2022-08-19T12:18:05;97454.54;;;34.17;33.84
53526;BME280;40551;50.478;19.378;2022-08-19T12:20:36;97458.70;;;34.16;33.95
53526;BME280;40551;50.478;19.378;2022-08-19T12:23:05;97459.48;;;34.21;34.41
53526;BME280;40551;50.478;19.378;2022-08-19T12:25:34;97458.74;;;34.29;33.91
53526;BME280;40551;50.478;19.378;2022-08-19T12:28:03;97458.11;;;34.29;33.57
53526;BME280;40551;50.478;19.378;2022-08-19T12:30:32;97458.13;;;34.28;33.81
53526;BME280;40551;50.478;19.378;2022-08-19T12:33:00;97460.83;;;34.31;33.79
53526;BME280;40551;50.478;19.378;2022-08-19T12:35:28;97458.37;;;34.37;34.22
53526;BME280;40551;50.478;19.378;2022-08-19T12:37:58;97462.12;;;34.42;34.44
53526;BME280;40551;50.478;19.378;2022-08-19T12:40:28;97458.52;;;34.43;34.00
53526;BME280;40551;50.478;19.378;2022-08-19T12:42:56;97461.77;;;34.43;34.25
53526;BME280;40551;50.478;19.378;2022-08-19T12:45:25;97459.07;;;34.40;34.05
53526;BME280;40551;50.478;19.378;2022-08-19T12:47:55;97461.52;;;34.31;33.87
53526;BME280;40551;50.478;19.378;2022-08-19T12:50:24;97461.20;;;34.19;33.79
53526;BME280;40551;50.478;19.378;2022-08-19T12:52:53;97457.41;;;34.14;34.44
53526;BME280;40551;50.478;19.378;2022-08-19T12:55:21;97453.52;;;34.08;34.53
53526;BME280;40551;50.478;19.378;2022-08-19T12:57:49;97452.59;;;34.05;34.49
53526;BME280;40551;50.478;19.378;2022-08-19T13:00:20;97453.90;;;34.08;34.93
53526;BME280;40551;50.478;19.378;2022-08-19T13:02:51;97449.02;;;34.09;35.00
53526;BME280;40551;50.478;19.378;2022-08-19T13:05:23;97446.13;;;34.16;35.12
53526;BME280;40551;50.478;19.378;2022-08-19T13:07:54;97443.46;;;34.26;34.58
53526;BME280;40551;50.478;19.378;2022-08-19T13:10:25;97437.32;;;34.36;33.69
53526;BME280;40551;50.478;19.378;2022-08-19T13:12:55;97432.65;;;34.43;33.79